Terminal Aerodrome Forecast
Issued by NWS

Home | Current Version | Previous Version | Text Only | Print | Product List | Glossary On
Versions: 1 2 3 4 5 6 7 8 9 10 11 12 13 14
000
FTUS45 KRIW 170536
TAFBPI
TAF
KBPI 170536Z 1706/1806 36014G24KT P6SM SCT035 OVC050
     FM170800 36013KT P6SM VCSH BKN035
      TEMPO 1709/1712 3SM -SHSN BKN024
     FM171600 32020G32KT P6SM VCSH SCT030 BKN040
     FM180100 33011KT P6SM SCT040 BKN060
     FM180500 34007KT P6SM SCT060=

USA.gov is the U.S. government's official web portal to all federal, state and local government web resources and services.